North Eastham, Massachusetts
Current Conditions -  °F | °C
As of 4:52 AM on Friday 26 Dec 2014 (Local Time) from KCQX Reporting Station
Clear Clear  
Wind Chill: 34°   Ceiling: Unl
Heat Index: 39°   Visibility: 10mi
Dew Point: 31°   Wind: 7mph
Humidity: 73%   Direction: 250°WSW
Pressure: 30.09"   Gusts: NA
Location:  41.85°N, 70°W
Report Text: KCQX 260952Z AUTO 25006KT 10SM CLR 04/M01 A3009 RMK AO2 SLP190 T00391006
Loading
Personal Weather Stations






























Interactive Weather Map New forecast layout! Learn more

10-Day Weather Forecast

Advertisements
Track Severe Weather on mobile